sensor_id;sensor_type;location;lat;lon;timestamp;P1;durP1;ratioP1;P2;durP2;ratioP2
69937;SDS011;57248;47.320;15.998;2023-04-21T00:00:23;7.55;;;2.95;;
69937;SDS011;57248;47.320;15.998;2023-04-21T00:03:02;8.85;;;3.45;;
69937;SDS011;57248;47.320;15.998;2023-04-21T00:05:35;8.03;;;3.03;;
69937;SDS011;57248;47.320;15.998;2023-04-21T00:08:00;7.45;;;3.28;;
69937;SDS011;57248;47.320;15.998;2023-04-21T00:10:33;6.80;;;2.90;;
69937;SDS011;57248;47.320;15.998;2023-04-21T00:13:04;8.90;;;3.13;;
69937;SDS011;57248;47.320;15.998;2023-04-21T00:15:36;6.60;;;2.80;;
69937;SDS011;57248;47.320;15.998;2023-04-21T00:18:08;7.72;;;3.17;;
69937;SDS011;57248;47.320;15.998;2023-04-21T00:20:40;7.20;;;2.90;;
69937;SDS011;57248;47.320;15.998;2023-04-21T00:23:12;7.78;;;3.17;;
69937;SDS011;57248;47.320;15.998;2023-04-21T00:25:44;7.37;;;2.87;;
69937;SDS011;57248;47.320;15.998;2023-04-21T00:28:16;7.20;;;3.03;;
69937;SDS011;57248;47.320;15.998;2023-04-21T00:30:48;6.88;;;3.00;;
69937;SDS011;57248;47.320;15.998;2023-04-21T00:33:20;7.53;;;3.13;;
69937;SDS011;57248;47.320;15.998;2023-04-21T00:35:55;6.63;;;2.83;;
69937;SDS011;57248;47.320;15.998;2023-04-21T00:38:29;7.53;;;3.03;;
69937;SDS011;57248;47.320;15.998;2023-04-21T00:41:01;7.50;;;2.92;;
69937;SDS011;57248;47.320;15.998;2023-04-21T00:43:36;8.82;;;3.92;;
69937;SDS011;57248;47.320;15.998;2023-04-21T00:46:07;8.73;;;3.17;;
69937;SDS011;57248;47.320;15.998;2023-04-21T00:48:39;8.02;;;2.97;;
69937;SDS011;57248;47.320;15.998;2023-04-21T00:51:11;8.50;;;3.07;;
69937;SDS011;57248;47.320;15.998;2023-04-21T00:53:44;7.15;;;2.83;;
69937;SDS011;57248;47.320;15.998;2023-04-21T00:56:17;9.35;;;2.60;;
69937;SDS011;57248;47.320;15.998;2023-04-21T00:58:50;7.75;;;3.20;;
69937;SDS011;57248;47.320;15.998;2023-04-21T01:01:22;8.23;;;2.90;;
69937;SDS011;57248;47.320;15.998;2023-04-21T01:03:58;9.27;;;3.37;;
69937;SDS011;57248;47.320;15.998;2023-04-21T01:06:37;8.43;;;2.90;;
69937;SDS011;57248;47.320;15.998;2023-04-21T01:09:10;8.15;;;3.42;;
69937;SDS011;57248;47.320;15.998;2023-04-21T01:11:59;7.85;;;3.22;;
69937;SDS011;57248;47.320;15.998;2023-04-21T01:14:33;6.90;;;2.80;;
69937;SDS011;57248;47.320;15.998;2023-04-21T01:17:09;7.33;;;2.63;;
69937;SDS011;57248;47.320;15.998;2023-04-21T01:19:41;7.85;;;3.03;;
69937;SDS011;57248;47.320;15.998;2023-04-21T01:22:13;7.35;;;3.05;;
69937;SDS011;57248;47.320;15.998;2023-04-21T01:24:46;8.25;;;3.15;;
69937;SDS011;57248;47.320;15.998;2023-04-21T01:27:19;7.38;;;2.95;;
69937;SDS011;57248;47.320;15.998;2023-04-21T01:29:53;8.57;;;3.50;;
69937;SDS011;57248;47.320;15.998;2023-04-21T01:32:26;7.63;;;3.08;;
69937;SDS011;57248;47.320;15.998;2023-04-21T01:34:59;7.85;;;3.05;;
69937;SDS011;57248;47.320;15.998;2023-04-21T01:37:32;6.80;;;3.03;;
69937;SDS011;57248;47.320;15.998;2023-04-21T01:40:05;9.00;;;3.42;;
69937;SDS011;57248;47.320;15.998;2023-04-21T01:42:40;8.23;;;3.33;;
69937;SDS011;57248;47.320;15.998;2023-04-21T01:45:13;8.43;;;3.50;;
69937;SDS011;57248;47.320;15.998;2023-04-21T01:47:39;10.87;;;3.70;;
69937;SDS011;57248;47.320;15.998;2023-04-21T01:50:12;9.23;;;3.70;;
69937;SDS011;57248;47.320;15.998;2023-04-21T01:52:40;9.20;;;3.75;;
69937;SDS011;57248;47.320;15.998;2023-04-21T01:55:13;9.05;;;3.40;;
69937;SDS011;57248;47.320;15.998;2023-04-21T01:57:39;7.43;;;2.97;;
69937;SDS011;57248;47.320;15.998;2023-04-21T02:00:11;8.40;;;3.45;;
69937;SDS011;57248;47.320;15.998;2023-04-21T02:02:43;9.10;;;3.30;;
69937;SDS011;57248;47.320;15.998;2023-04-21T02:05:22;7.18;;;2.67;;
69937;SDS011;57248;47.320;15.998;2023-04-21T02:07:55;8.27;;;3.10;;
69937;SDS011;57248;47.320;15.998;2023-04-21T02:10:26;7.85;;;3.33;;
69937;SDS011;57248;47.320;15.998;2023-04-21T02:12:58;9.38;;;3.35;;
69937;SDS011;57248;47.320;15.998;2023-04-21T02:15:32;8.27;;;3.33;;
69937;SDS011;57248;47.320;15.998;2023-04-21T02:18:05;9.82;;;3.47;;
69937;SDS011;57248;47.320;15.998;2023-04-21T02:20:36;8.93;;;3.00;;
69937;SDS011;57248;47.320;15.998;2023-04-21T02:23:09;8.82;;;3.33;;
69937;SDS011;57248;47.320;15.998;2023-04-21T02:25:41;8.40;;;3.38;;
69937;SDS011;57248;47.320;15.998;2023-04-21T02:28:12;8.68;;;3.83;;
69937;SDS011;57248;47.320;15.998;2023-04-21T02:30:46;10.07;;;4.22;;
69937;SDS011;57248;47.320;15.998;2023-04-21T02:33:17;8.67;;;3.50;;
69937;SDS011;57248;47.320;15.998;2023-04-21T02:35:50;9.23;;;3.70;;
69937;SDS011;57248;47.320;15.998;2023-04-21T02:38:22;9.20;;;3.72;;
69937;SDS011;57248;47.320;15.998;2023-04-21T02:40:55;8.82;;;3.30;;
69937;SDS011;57248;47.320;15.998;2023-04-21T02:43:28;8.15;;;3.13;;
69937;SDS011;57248;47.320;15.998;2023-04-21T02:46:05;8.60;;;3.60;;
69937;SDS011;57248;47.320;15.998;2023-04-21T02:48:39;9.52;;;3.95;;
69937;SDS011;57248;47.320;15.998;2023-04-21T02:51:04;10.17;;;3.70;;
69937;SDS011;57248;47.320;15.998;2023-04-21T02:53:37;8.37;;;3.47;;
69937;SDS011;57248;47.320;15.998;2023-04-21T02:56:09;10.93;;;4.07;;
69937;SDS011;57248;47.320;15.998;2023-04-21T02:58:34;9.83;;;4.00;;
69937;SDS011;57248;47.320;15.998;2023-04-21T03:01:07;9.63;;;3.95;;
69937;SDS011;57248;47.320;15.998;2023-04-21T03:03:39;10.57;;;4.30;;
69937;SDS011;57248;47.320;15.998;2023-04-21T03:06:18;10.05;;;4.28;;
69937;SDS011;57248;47.320;15.998;2023-04-21T03:08:50;10.07;;;4.18;;
69937;SDS011;57248;47.320;15.998;2023-04-21T03:11:25;9.80;;;3.97;;
69937;SDS011;57248;47.320;15.998;2023-04-21T03:13:57;8.70;;;3.60;;
69937;SDS011;57248;47.320;15.998;2023-04-21T03:16:22;9.47;;;3.60;;
69937;SDS011;57248;47.320;15.998;2023-04-21T03:18:54;10.57;;;3.97;;
69937;SDS011;57248;47.320;15.998;2023-04-21T03:21:27;9.68;;;3.78;;
69937;SDS011;57248;47.320;15.998;2023-04-21T03:23:59;9.23;;;3.65;;
69937;SDS011;57248;47.320;15.998;2023-04-21T03:26:31;9.73;;;3.70;;
69937;SDS011;57248;47.320;15.998;2023-04-21T03:29:03;9.97;;;3.77;;
69937;SDS011;57248;47.320;15.998;2023-04-21T03:31:35;9.82;;;4.00;;
69937;SDS011;57248;47.320;15.998;2023-04-21T03:34:07;9.10;;;3.78;;
69937;SDS011;57248;47.320;15.998;2023-04-21T03:36:38;9.10;;;3.78;;
69937;SDS011;57248;47.320;15.998;2023-04-21T03:39:11;10.43;;;4.15;;
69937;SDS011;57248;47.320;15.998;2023-04-21T03:41:43;9.73;;;3.70;;
69937;SDS011;57248;47.320;15.998;2023-04-21T03:44:15;9.48;;;3.53;;
69937;SDS011;57248;47.320;15.998;2023-04-21T03:46:47;11.52;;;4.60;;
69937;SDS011;57248;47.320;15.998;2023-04-21T03:49:20;12.90;;;5.70;;
69937;SDS011;57248;47.320;15.998;2023-04-21T03:51:53;15.75;;;6.28;;
69937;SDS011;57248;47.320;15.998;2023-04-21T03:54:25;12.43;;;5.20;;
69937;SDS011;57248;47.320;15.998;2023-04-21T03:56:50;11.52;;;4.90;;
69937;SDS011;57248;47.320;15.998;2023-04-21T03:59:22;9.97;;;4.67;;
69937;SDS011;57248;47.320;15.998;2023-04-21T04:01:54;11.38;;;4.45;;
69937;SDS011;57248;47.320;15.998;2023-04-21T04:04:32;12.10;;;4.88;;
69937;SDS011;57248;47.320;15.998;2023-04-21T04:07:05;11.43;;;4.93;;
69937;SDS011;57248;47.320;15.998;2023-04-21T04:09:38;12.32;;;5.28;;
69937;SDS011;57248;47.320;15.998;2023-04-21T04:12:10;12.13;;;5.53;;
69937;SDS011;57248;47.320;15.998;2023-04-21T04:14:42;11.98;;;5.72;;
69937;SDS011;57248;47.320;15.998;2023-04-21T04:17:14;14.55;;;6.80;;
69937;SDS011;57248;47.320;15.998;2023-04-21T04:19:47;14.32;;;5.70;;
69937;SDS011;57248;47.320;15.998;2023-04-21T04:22:19;13.45;;;5.25;;
69937;SDS011;57248;47.320;15.998;2023-04-21T04:24:52;13.03;;;5.77;;
69937;SDS011;57248;47.320;15.998;2023-04-21T04:27:18;13.82;;;6.07;;
69937;SDS011;57248;47.320;15.998;2023-04-21T04:29:51;12.97;;;6.00;;
69937;SDS011;57248;47.320;15.998;2023-04-21T04:32:24;11.98;;;5.95;;
69937;SDS011;57248;47.320;15.998;2023-04-21T04:34:59;13.00;;;5.72;;
69937;SDS011;57248;47.320;15.998;2023-04-21T04:37:31;12.82;;;5.88;;
69937;SDS011;57248;47.320;15.998;2023-04-21T04:40:05;13.30;;;5.38;;
69937;SDS011;57248;47.320;15.998;2023-04-21T04:42:41;12.30;;;4.93;;
69937;SDS011;57248;47.320;15.998;2023-04-21T04:45:07;11.38;;;4.82;;
69937;SDS011;57248;47.320;15.998;2023-04-21T04:47:42;12.50;;;5.53;;
69937;SDS011;57248;47.320;15.998;2023-04-21T04:50:14;11.88;;;5.20;;
69937;SDS011;57248;47.320;15.998;2023-04-21T04:52:46;13.23;;;5.60;;
69937;SDS011;57248;47.320;15.998;2023-04-21T04:55:13;12.10;;;5.68;;
69937;SDS011;57248;47.320;15.998;2023-04-21T04:57:45;14.38;;;5.65;;
69937;SDS011;57248;47.320;15.998;2023-04-21T05:00:17;10.07;;;4.97;;
69937;SDS011;57248;47.320;15.998;2023-04-21T05:02:49;11.32;;;5.10;;
69937;SDS011;57248;47.320;15.998;2023-04-21T05:05:34;7.47;;;3.40;;
69937;SDS011;57248;47.320;15.998;2023-04-21T05:08:07;12.02;;;5.22;;
69937;SDS011;57248;47.320;15.998;2023-04-21T05:10:40;13.35;;;6.57;;
69937;SDS011;57248;47.320;15.998;2023-04-21T05:13:12;13.23;;;6.60;;
69937;SDS011;57248;47.320;15.998;2023-04-21T05:15:44;14.55;;;6.13;;
69937;SDS011;57248;47.320;15.998;2023-04-21T05:18:16;12.23;;;5.27;;
69937;SDS011;57248;47.320;15.998;2023-04-21T05:20:48;14.13;;;5.45;;
69937;SDS011;57248;47.320;15.998;2023-04-21T05:23:21;10.57;;;4.63;;
69937;SDS011;57248;47.320;15.998;2023-04-21T05:25:54;10.07;;;4.68;;
69937;SDS011;57248;47.320;15.998;2023-04-21T05:28:26;9.95;;;4.47;;
69937;SDS011;57248;47.320;15.998;2023-04-21T05:31:01;10.67;;;5.10;;
69937;SDS011;57248;47.320;15.998;2023-04-21T05:33:33;13.02;;;4.55;;
69937;SDS011;57248;47.320;15.998;2023-04-21T05:36:06;9.25;;;4.53;;
69937;SDS011;57248;47.320;15.998;2023-04-21T05:38:40;12.32;;;4.85;;
69937;SDS011;57248;47.320;15.998;2023-04-21T05:41:12;9.65;;;4.82;;
69937;SDS011;57248;47.320;15.998;2023-04-21T05:43:44;12.67;;;4.90;;
69937;SDS011;57248;47.320;15.998;2023-04-21T05:46:22;11.18;;;5.22;;
69937;SDS011;57248;47.320;15.998;2023-04-21T05:48:55;11.30;;;4.75;;
69937;SDS011;57248;47.320;15.998;2023-04-21T05:51:27;12.30;;;5.20;;
69937;SDS011;57248;47.320;15.998;2023-04-21T05:54:06;12.18;;;5.03;;
69937;SDS011;57248;47.320;15.998;2023-04-21T05:56:38;9.97;;;4.60;;
69937;SDS011;57248;47.320;15.998;2023-04-21T05:59:10;9.50;;;4.57;;
69937;SDS011;57248;47.320;15.998;2023-04-21T06:01:42;10.43;;;4.53;;
69937;SDS011;57248;47.320;15.998;2023-04-21T06:04:15;11.32;;;4.82;;
69937;SDS011;57248;47.320;15.998;2023-04-21T06:06:47;11.50;;;5.22;;
69937;SDS011;57248;47.320;15.998;2023-04-21T06:09:19;9.30;;;4.53;;
69937;SDS011;57248;47.320;15.998;2023-04-21T06:11:51;9.80;;;5.00;;
69937;SDS011;57248;47.320;15.998;2023-04-21T06:14:16;9.03;;;5.10;;
69937;SDS011;57248;47.320;15.998;2023-04-21T06:16:48;12.50;;;6.13;;
69937;SDS011;57248;47.320;15.998;2023-04-21T06:19:13;10.40;;;6.00;;
69937;SDS011;57248;47.320;15.998;2023-04-21T06:21:45;15.55;;;6.72;;
69937;SDS011;57248;47.320;15.998;2023-04-21T06:24:17;12.13;;;6.55;;
69937;SDS011;57248;47.320;15.998;2023-04-21T06:26:55;11.45;;;6.30;;
69937;SDS011;57248;47.320;15.998;2023-04-21T06:29:20;11.00;;;5.60;;
69937;SDS011;57248;47.320;15.998;2023-04-21T06:31:52;11.45;;;5.50;;
69937;SDS011;57248;47.320;15.998;2023-04-21T06:34:26;10.00;;;4.93;;
69937;SDS011;57248;47.320;15.998;2023-04-21T06:36:58;9.27;;;4.90;;
69937;SDS011;57248;47.320;15.998;2023-04-21T06:39:30;18.90;;;4.88;;
69937;SDS011;57248;47.320;15.998;2023-04-21T06:42:02;10.23;;;5.30;;
69937;SDS011;57248;47.320;15.998;2023-04-21T06:44:40;11.57;;;5.25;;
69937;SDS011;57248;47.320;15.998;2023-04-21T06:47:13;8.75;;;5.30;;
69937;SDS011;57248;47.320;15.998;2023-04-21T06:49:47;10.80;;;5.10;;
69937;SDS011;57248;47.320;15.998;2023-04-21T06:52:19;12.15;;;5.13;;
69937;SDS011;57248;47.320;15.998;2023-04-21T06:54:45;10.63;;;5.47;;
69937;SDS011;57248;47.320;15.998;2023-04-21T06:57:17;11.95;;;5.55;;
69937;SDS011;57248;47.320;15.998;2023-04-21T06:59:49;9.30;;;5.90;;
69937;SDS011;57248;47.320;15.998;2023-04-21T07:02:22;9.93;;;5.87;;
69937;SDS011;57248;47.320;15.998;2023-04-21T07:05:02;12.27;;;6.40;;
69937;SDS011;57248;47.320;15.998;2023-04-21T07:07:34;10.55;;;5.70;;
69937;SDS011;57248;47.320;15.998;2023-04-21T07:10:06;9.50;;;5.75;;
69937;SDS011;57248;47.320;15.998;2023-04-21T07:12:38;7.43;;;4.82;;
69937;SDS011;57248;47.320;15.998;2023-04-21T07:15:10;9.13;;;4.50;;
69937;SDS011;57248;47.320;15.998;2023-04-21T07:17:43;9.25;;;4.43;;
69937;SDS011;57248;47.320;15.998;2023-04-21T07:20:08;8.43;;;4.80;;
69937;SDS011;57248;47.320;15.998;2023-04-21T07:22:41;8.15;;;4.40;;
69937;SDS011;57248;47.320;15.998;2023-04-21T07:25:13;11.00;;;4.85;;
69937;SDS011;57248;47.320;15.998;2023-04-21T07:27:45;11.50;;;4.55;;
69937;SDS011;57248;47.320;15.998;2023-04-21T07:30:17;10.02;;;4.53;;
69937;SDS011;57248;47.320;15.998;2023-04-21T07:32:42;8.57;;;4.27;;
69937;SDS011;57248;47.320;15.998;2023-04-21T07:35:14;8.32;;;4.32;;
69937;SDS011;57248;47.320;15.998;2023-04-21T07:37:46;8.03;;;4.17;;
69937;SDS011;57248;47.320;15.998;2023-04-21T07:40:18;8.80;;;3.83;;
69937;SDS011;57248;47.320;15.998;2023-04-21T07:42:50;7.50;;;4.03;;
69937;SDS011;57248;47.320;15.998;2023-04-21T07:45:22;9.75;;;4.20;;
69937;SDS011;57248;47.320;15.998;2023-04-21T07:47:54;7.40;;;4.05;;
69937;SDS011;57248;47.320;15.998;2023-04-21T07:50:27;7.73;;;4.13;;
69937;SDS011;57248;47.320;15.998;2023-04-21T07:52:52;11.30;;;4.45;;
69937;SDS011;57248;47.320;15.998;2023-04-21T07:55:24;8.17;;;4.30;;
69937;SDS011;57248;47.320;15.998;2023-04-21T07:57:56;6.88;;;4.10;;
69937;SDS011;57248;47.320;15.998;2023-04-21T08:00:28;12.50;;;4.82;;
69937;SDS011;57248;47.320;15.998;2023-04-21T08:03:00;7.45;;;4.45;;
69937;SDS011;57248;47.320;15.998;2023-04-21T08:05:46;7.72;;;4.15;;
69937;SDS011;57248;47.320;15.998;2023-04-21T08:08:18;8.00;;;4.10;;
69937;SDS011;57248;47.320;15.998;2023-04-21T08:10:52;9.05;;;4.25;;
69937;SDS011;57248;47.320;15.998;2023-04-21T08:13:24;9.63;;;4.63;;
69937;SDS011;57248;47.320;15.998;2023-04-21T08:15:56;10.00;;;4.15;;
69937;SDS011;57248;47.320;15.998;2023-04-21T08:18:28;8.88;;;4.10;;
69937;SDS011;57248;47.320;15.998;2023-04-21T08:20:53;8.07;;;4.10;;
69937;SDS011;57248;47.320;15.998;2023-04-21T08:23:28;11.02;;;4.30;;
69937;SDS011;57248;47.320;15.998;2023-04-21T08:26:03;7.63;;;4.90;;
69937;SDS011;57248;47.320;15.998;2023-04-21T08:28:35;8.43;;;4.53;;
69937;SDS011;57248;47.320;15.998;2023-04-21T08:31:07;7.93;;;4.80;;
69937;SDS011;57248;47.320;15.998;2023-04-21T08:33:32;10.35;;;4.70;;
69937;SDS011;57248;47.320;15.998;2023-04-21T08:36:05;7.30;;;5.90;;
69937;SDS011;57248;47.320;15.998;2023-04-21T08:38:37;10.63;;;6.60;;
69937;SDS011;57248;47.320;15.998;2023-04-21T08:41:10;10.15;;;8.73;;
69937;SDS011;57248;47.320;15.998;2023-04-21T08:43:43;15.00;;;12.10;;
69937;SDS011;57248;47.320;15.998;2023-04-21T08:46:08;39.03;;;32.63;;
69937;SDS011;57248;47.320;15.998;2023-04-21T08:48:40;11.02;;;7.95;;
69937;SDS011;57248;47.320;15.998;2023-04-21T08:51:13;9.55;;;5.97;;
69937;SDS011;57248;47.320;15.998;2023-04-21T08:53:53;9.13;;;5.17;;
69937;SDS011;57248;47.320;15.998;2023-04-21T08:56:26;10.30;;;5.43;;
69937;SDS011;57248;47.320;15.998;2023-04-21T08:58:58;9.32;;;4.82;;
69937;SDS011;57248;47.320;15.998;2023-04-21T09:01:30;11.65;;;4.35;;
69937;SDS011;57248;47.320;15.998;2023-04-21T09:04:14;9.65;;;4.32;;
69937;SDS011;57248;47.320;15.998;2023-04-21T09:06:54;8.97;;;4.70;;
69937;SDS011;57248;47.320;15.998;2023-04-21T09:09:27;9.93;;;4.10;;
69937;SDS011;57248;47.320;15.998;2023-04-21T09:11:59;11.30;;;4.70;;
69937;SDS011;57248;47.320;15.998;2023-04-21T09:14:33;11.13;;;4.40;;
69937;SDS011;57248;47.320;15.998;2023-04-21T09:17:05;9.10;;;4.22;;
69937;SDS011;57248;47.320;15.998;2023-04-21T09:19:32;10.50;;;4.67;;
69937;SDS011;57248;47.320;15.998;2023-04-21T09:22:05;8.07;;;4.43;;
69937;SDS011;57248;47.320;15.998;2023-04-21T09:24:40;10.80;;;4.50;;
69937;SDS011;57248;47.320;15.998;2023-04-21T09:27:17;8.53;;;4.00;;
69937;SDS011;57248;47.320;15.998;2023-04-21T09:29:49;10.63;;;3.97;;
69937;SDS011;57248;47.320;15.998;2023-04-21T09:32:22;12.07;;;4.55;;
69937;SDS011;57248;47.320;15.998;2023-04-21T09:34:58;9.70;;;4.28;;
69937;SDS011;57248;47.320;15.998;2023-04-21T09:37:31;9.77;;;4.68;;
69937;SDS011;57248;47.320;15.998;2023-04-21T09:40:05;11.40;;;5.23;;
69937;SDS011;57248;47.320;15.998;2023-04-21T09:42:37;8.25;;;5.28;;
69937;SDS011;57248;47.320;15.998;2023-04-21T09:45:09;9.50;;;5.63;;
69937;SDS011;57248;47.320;15.998;2023-04-21T09:47:41;10.15;;;6.68;;
69937;SDS011;57248;47.320;15.998;2023-04-21T09:50:14;9.80;;;5.15;;
69937;SDS011;57248;47.320;15.998;2023-04-21T09:52:46;10.90;;;7.50;;
69937;SDS011;57248;47.320;15.998;2023-04-21T09:55:21;10.20;;;7.80;;
69937;SDS011;57248;47.320;15.998;2023-04-21T09:58:01;11.77;;;9.07;;
69937;SDS011;57248;47.320;15.998;2023-04-21T10:00:36;11.10;;;8.52;;
69937;SDS011;57248;47.320;15.998;2023-04-21T10:03:17;10.43;;;9.45;;
69937;SDS011;57248;47.320;15.998;2023-04-21T10:05:50;13.40;;;10.77;;
69937;SDS011;57248;47.320;15.998;2023-04-21T10:08:29;13.25;;;9.45;;
69937;SDS011;57248;47.320;15.998;2023-04-21T10:11:01;9.48;;;5.63;;
69937;SDS011;57248;47.320;15.998;2023-04-21T10:13:34;10.55;;;5.22;;
69937;SDS011;57248;47.320;15.998;2023-04-21T10:16:01;11.55;;;6.75;;
69937;SDS011;57248;47.320;15.998;2023-04-21T10:18:35;12.30;;;7.57;;
69937;SDS011;57248;47.320;15.998;2023-04-21T10:21:10;12.75;;;8.73;;
69937;SDS011;57248;47.320;15.998;2023-04-21T10:23:49;11.98;;;9.52;;
69937;SDS011;57248;47.320;15.998;2023-04-21T10:26:24;11.43;;;9.68;;
69937;SDS011;57248;47.320;15.998;2023-04-21T10:28:58;12.57;;;10.15;;
69937;SDS011;57248;47.320;15.998;2023-04-21T10:31:36;10.50;;;8.80;;
69937;SDS011;57248;47.320;15.998;2023-04-21T10:37:09;13.30;;;11.15;;
69937;SDS011;57248;47.320;15.998;2023-04-21T10:39:44;11.55;;;9.63;;
69937;SDS011;57248;47.320;15.998;2023-04-21T10:42:23;13.52;;;10.90;;
69937;SDS011;57248;47.320;15.998;2023-04-21T10:47:36;12.80;;;11.60;;
69937;SDS011;57248;47.320;15.998;2023-04-21T10:50:10;12.60;;;11.50;;
69937;SDS011;57248;47.320;15.998;2023-04-21T10:52:44;14.80;;;11.68;;
69937;SDS011;57248;47.320;15.998;2023-04-21T10:55:26;15.93;;;11.10;;
69937;SDS011;57248;47.320;15.998;2023-04-21T10:58:02;21.90;;;12.10;;
69937;SDS011;57248;47.320;15.998;2023-04-21T11:00:36;12.20;;;10.88;;
69937;SDS011;57248;47.320;15.998;2023-04-21T11:03:09;13.40;;;11.25;;
69937;SDS011;57248;47.320;15.998;2023-04-21T11:05:48;13.63;;;12.40;;
69937;SDS011;57248;47.320;15.998;2023-04-21T11:08:20;15.93;;;14.25;;
69937;SDS011;57248;47.320;15.998;2023-04-21T11:10:53;16.27;;;14.70;;
69937;SDS011;57248;47.320;15.998;2023-04-21T11:13:26;14.20;;;13.02;;
69937;SDS011;57248;47.320;15.998;2023-04-21T11:16:05;14.90;;;12.88;;
69937;SDS011;57248;47.320;15.998;2023-04-21T11:18:39;15.23;;;13.93;;
69937;SDS011;57248;47.320;15.998;2023-04-21T11:21:13;12.32;;;10.98;;
69937;SDS011;57248;47.320;15.998;2023-04-21T11:23:50;9.83;;;8.53;;
69937;SDS011;57248;47.320;15.998;2023-04-21T11:26:33;12.32;;;9.73;;
69937;SDS011;57248;47.320;15.998;2023-04-21T11:29:11;13.20;;;9.95;;
69937;SDS011;57248;47.320;15.998;2023-04-21T11:31:43;10.05;;;9.05;;
69937;SDS011;57248;47.320;15.998;2023-04-21T11:34:19;11.52;;;9.48;;
69937;SDS011;57248;47.320;15.998;2023-04-21T11:36:51;11.53;;;10.53;;
69937;SDS011;57248;47.320;15.998;2023-04-21T11:39:24;13.15;;;11.80;;
69937;SDS011;57248;47.320;15.998;2023-04-21T11:41:56;12.85;;;11.65;;
69937;SDS011;57248;47.320;15.998;2023-04-21T11:47:11;14.38;;;13.00;;
69937;SDS011;57248;47.320;15.998;2023-04-21T11:49:44;13.75;;;12.43;;
69937;SDS011;57248;47.320;15.998;2023-04-21T11:52:24;9.63;;;7.43;;
69937;SDS011;57248;47.320;15.998;2023-04-21T11:55:05;12.70;;;5.27;;
69937;SDS011;57248;47.320;15.998;2023-04-21T11:57:42;12.73;;;4.22;;
69937;SDS011;57248;47.320;15.998;2023-04-21T12:00:14;9.55;;;3.83;;
69937;SDS011;57248;47.320;15.998;2023-04-21T12:02:52;11.32;;;7.18;;
69937;SDS011;57248;47.320;15.998;2023-04-21T12:05:33;9.32;;;7.03;;
69937;SDS011;57248;47.320;15.998;2023-04-21T12:08:14;9.17;;;5.40;;
69937;SDS011;57248;47.320;15.998;2023-04-21T12:10:47;10.05;;;3.83;;
69937;SDS011;57248;47.320;15.998;2023-04-21T12:13:22;13.70;;;4.80;;
69937;SDS011;57248;47.320;15.998;2023-04-21T12:15:55;6.95;;;3.72;;
69937;SDS011;57248;47.320;15.998;2023-04-21T12:18:27;8.52;;;3.58;;
69937;SDS011;57248;47.320;15.998;2023-04-21T12:21:00;9.73;;;3.50;;
69937;SDS011;57248;47.320;15.998;2023-04-21T12:23:33;9.05;;;3.67;;
69937;SDS011;57248;47.320;15.998;2023-04-21T12:26:06;9.38;;;3.20;;
69937;SDS011;57248;47.320;15.998;2023-04-21T12:28:38;7.03;;;2.95;;
69937;SDS011;57248;47.320;15.998;2023-04-21T12:31:11;6.32;;;3.13;;
69937;SDS011;57248;47.320;15.998;2023-04-21T12:33:44;8.17;;;3.03;;
69937;SDS011;57248;47.320;15.998;2023-04-21T12:36:10;10.20;;;3.67;;
69937;SDS011;57248;47.320;15.998;2023-04-21T12:38:42;9.60;;;3.45;;
69937;SDS011;57248;47.320;15.998;2023-04-21T12:41:15;8.13;;;3.40;;
69937;SDS011;57248;47.320;15.998;2023-04-21T12:43:40;7.23;;;3.20;;
69937;SDS011;57248;47.320;15.998;2023-04-21T12:46:12;9.38;;;3.17;;
69937;SDS011;57248;47.320;15.998;2023-04-21T12:48:44;9.52;;;3.15;;
69937;SDS011;57248;47.320;15.998;2023-04-21T12:51:16;7.77;;;2.67;;
69937;SDS011;57248;47.320;15.998;2023-04-21T12:53:48;6.78;;;2.58;;
69937;SDS011;57248;47.320;15.998;2023-04-21T12:56:20;8.32;;;2.70;;
69937;SDS011;57248;47.320;15.998;2023-04-21T12:58:52;11.15;;;3.10;;
69937;SDS011;57248;47.320;15.998;2023-04-21T13:01:17;9.67;;;3.03;;
69937;SDS011;57248;47.320;15.998;2023-04-21T13:03:51;7.88;;;2.70;;
69937;SDS011;57248;47.320;15.998;2023-04-21T13:06:30;8.93;;;2.70;;
69937;SDS011;57248;47.320;15.998;2023-04-21T13:09:03;8.93;;;2.63;;
69937;SDS011;57248;47.320;15.998;2023-04-21T13:11:37;6.97;;;2.88;;
69937;SDS011;57248;47.320;15.998;2023-04-21T13:14:10;38.78;;;20.73;;
69937;SDS011;57248;47.320;15.998;2023-04-21T13:16:42;10.77;;;4.03;;
69937;SDS011;57248;47.320;15.998;2023-04-21T13:19:14;13.82;;;6.07;;
69937;SDS011;57248;47.320;15.998;2023-04-21T13:21:47;10.73;;;3.73;;
69937;SDS011;57248;47.320;15.998;2023-04-21T13:24:19;8.02;;;2.58;;
69937;SDS011;57248;47.320;15.998;2023-04-21T13:26:51;9.55;;;3.10;;
69937;SDS011;57248;47.320;15.998;2023-04-21T13:29:23;6.10;;;2.75;;
69937;SDS011;57248;47.320;15.998;2023-04-21T13:31:55;11.30;;;4.68;;
69937;SDS011;57248;47.320;15.998;2023-04-21T13:34:27;16.87;;;9.20;;
69937;SDS011;57248;47.320;15.998;2023-04-21T13:37:00;18.17;;;8.38;;
69937;SDS011;57248;47.320;15.998;2023-04-21T13:39:32;23.25;;;12.90;;
69937;SDS011;57248;47.320;15.998;2023-04-21T13:42:04;14.40;;;7.22;;
69937;SDS011;57248;47.320;15.998;2023-04-21T13:44:37;8.40;;;3.53;;
69937;SDS011;57248;47.320;15.998;2023-04-21T13:47:02;7.40;;;3.37;;
69937;SDS011;57248;47.320;15.998;2023-04-21T13:49:35;8.23;;;3.03;;
69937;SDS011;57248;47.320;15.998;2023-04-21T13:52:00;7.17;;;3.00;;
69937;SDS011;57248;47.320;15.998;2023-04-21T13:54:32;9.48;;;3.33;;
69937;SDS011;57248;47.320;15.998;2023-04-21T13:57:04;8.38;;;3.60;;
69937;SDS011;57248;47.320;15.998;2023-04-21T13:59:36;9.17;;;4.00;;
69937;SDS011;57248;47.320;15.998;2023-04-21T14:02:08;8.45;;;3.75;;
69937;SDS011;57248;47.320;15.998;2023-04-21T14:04:40;9.57;;;3.90;;
69937;SDS011;57248;47.320;15.998;2023-04-21T14:07:20;10.02;;;4.60;;
69937;SDS011;57248;47.320;15.998;2023-04-21T14:09:53;8.23;;;3.47;;
69937;SDS011;57248;47.320;15.998;2023-04-21T14:12:25;8.53;;;2.80;;
69937;SDS011;57248;47.320;15.998;2023-04-21T14:14:57;6.95;;;3.30;;
69937;SDS011;57248;47.320;15.998;2023-04-21T14:17:29;9.10;;;4.25;;
69937;SDS011;57248;47.320;15.998;2023-04-21T14:20:02;5.70;;;3.00;;
69937;SDS011;57248;47.320;15.998;2023-04-21T14:22:28;9.65;;;3.00;;
69937;SDS011;57248;47.320;15.998;2023-04-21T14:25:01;9.03;;;3.07;;
69937;SDS011;57248;47.320;15.998;2023-04-21T14:27:33;6.43;;;2.90;;
69937;SDS011;57248;47.320;15.998;2023-04-21T14:30:05;5.80;;;3.70;;
69937;SDS011;57248;47.320;15.998;2023-04-21T14:32:38;9.25;;;4.03;;
69937;SDS011;57248;47.320;15.998;2023-04-21T14:35:16;8.55;;;3.08;;
69937;SDS011;57248;47.320;15.998;2023-04-21T14:37:41;5.23;;;2.67;;
69937;SDS011;57248;47.320;15.998;2023-04-21T14:40:14;6.55;;;2.83;;
69937;SDS011;57248;47.320;15.998;2023-04-21T14:42:46;7.05;;;2.60;;
69937;SDS011;57248;47.320;15.998;2023-04-21T14:45:18;5.55;;;2.30;;
69937;SDS011;57248;47.320;15.998;2023-04-21T14:47:50;7.85;;;2.58;;
69937;SDS011;57248;47.320;15.998;2023-04-21T14:50:22;6.30;;;2.10;;
69937;SDS011;57248;47.320;15.998;2023-04-21T14:52:54;6.30;;;2.10;;
69937;SDS011;57248;47.320;15.998;2023-04-21T14:55:26;6.78;;;2.30;;
69937;SDS011;57248;47.320;15.998;2023-04-21T14:57:58;7.30;;;2.70;;
69937;SDS011;57248;47.320;15.998;2023-04-21T15:00:30;8.15;;;2.60;;
69937;SDS011;57248;47.320;15.998;2023-04-21T15:03:02;6.77;;;2.50;;
69937;SDS011;57248;47.320;15.998;2023-04-21T15:05:27;9.77;;;2.50;;
69937;SDS011;57248;47.320;15.998;2023-04-21T15:07:59;8.95;;;2.70;;